Time;durP1;ratioP1;P1;durP2;ratioP2;P2;SDS_P1;SDS_P2;PMS_P1;PMS_P2;Temp;Humidity;BMP_temperature;BMP_pressure;BME280_temperature;BME280_humidity;BME280_pressure;Samples;Min_cycle;Max_cycle;Signal;HPM_P1;HPM_P2
2022/07/22 00:00:07;;;;;;;;;;;24.60;57.90;;;;;;5106455;27;19925;-63
2022/07/22 00:02:35;;;;;;;;;;;24.70;58.00;;;;;;5075170;28;19928;-63
2022/07/22 00:05:01;;;;;;;;;;;24.60;57.90;;;;;;5074413;28;19956;-63
2022/07/22 00:07:28;;;;;;;;;;;24.70;58.00;;;;;;5073760;28;19927;-62
2022/07/22 00:09:55;;;;;;;;;;;24.70;58.10;;;;;;5073757;28;20296;-63
2022/07/22 00:12:22;;;;;;;;;;;24.70;58.10;;;;;;5076348;28;20322;-63
2022/07/22 00:14:48;;;;;;;;;;;24.60;58.00;;;;;;5107230;28;19920;-63
2022/07/22 00:17:15;;;;;;;;;;;24.60;58.00;;;;;;5064565;28;19932;-63
2022/07/22 00:19:44;;;;;;;;;;;24.60;58.60;;;;;;5056901;28;19973;-63
2022/07/22 00:22:10;;;;;;;;;;;24.60;58.00;;;;;;5075239;28;19920;-63
2022/07/22 00:24:37;;;;;;;;;;;24.70;58.10;;;;;;5073340;28;20323;-62
2022/07/22 00:27:04;;;;;;;;;;;24.60;58.00;;;;;;5089232;28;19958;-63
2022/07/22 00:29:31;;;;;;;;;;;24.60;58.00;;;;;;5087732;28;19974;-63
2022/07/22 00:31:58;;;;;;;;;;;24.70;58.20;;;;;;5061877;28;20434;-63
2022/07/22 00:34:24;;;;;;;;;;;24.60;58.10;;;;;;5102992;28;20438;-63
2022/07/22 00:36:52;;;;;;;;;;;24.60;58.10;;;;;;5065766;28;19924;-63
2022/07/22 00:39:21;;;;;;;;;;;24.60;58.10;;;;;;5082849;28;19928;-63
2022/07/22 00:41:48;;;;;;;;;;;24.60;58.10;;;;;;5106052;28;19920;-63
2022/07/22 00:44:15;;;;;;;;;;;24.60;58.00;;;;;;5087408;28;19925;-63
2022/07/22 00:46:42;;;;;;;;;;;24.60;57.90;;;;;;5078035;28;19924;-63
2022/07/22 00:49:09;;;;;;;;;;;24.50;57.80;;;;;;5074271;28;19920;-62
2022/07/22 00:51:37;;;;;;;;;;;24.50;57.80;;;;;;5077007;28;19927;-63
2022/07/22 00:54:05;;;;;;;;;;;24.50;57.70;;;;;;5083161;28;19943;-63
2022/07/22 00:56:32;;;;;;;;;;;24.50;58.20;;;;;;5073048;28;19920;-63
2022/07/22 00:58:59;;;;;;;;;;;24.50;57.60;;;;;;5074302;28;20362;-63
2022/07/22 01:01:26;;;;;;;;;;;24.50;57.60;;;;;;5073003;28;20353;-63
2022/07/22 01:03:53;;;;;;;;;;;24.40;57.50;;;;;;5078678;28;19924;-62
2022/07/22 01:06:20;;;;;;;;;;;24.40;57.50;;;;;;5078618;28;19937;-63
2022/07/22 01:08:46;;;;;;;;;;;24.40;57.40;;;;;;5066145;28;19974;-63
2022/07/22 01:11:15;;;;;;;;;;;24.40;57.40;;;;;;5094286;28;19928;-63
2022/07/22 01:13:42;;;;;;;;;;;24.40;57.40;;;;;;5086996;28;20025;-63
2022/07/22 01:16:09;;;;;;;;;;;24.40;57.40;;;;;;5071910;28;19924;-63
2022/07/22 01:18:36;;;;;;;;;;;24.30;57.20;;;;;;5105317;28;19974;-63
2022/07/22 01:21:05;;;;;;;;;;;24.30;57.10;;;;;;5087981;28;19920;-63
2022/07/22 01:23:32;;;;;;;;;;;24.30;57.00;;;;;;5083853;28;20158;-63
2022/07/22 01:25:58;;;;;;;;;;;24.30;57.00;;;;;;5099959;28;19920;-64
2022/07/22 01:28:25;;;;;;;;;;;24.30;57.00;;;;;;5073418;28;19933;-63
2022/07/22 01:30:52;;;;;;;;;;;24.30;57.00;;;;;;5088604;28;19967;-63
2022/07/22 01:33:19;;;;;;;;;;;24.30;56.90;;;;;;5075671;28;19978;-63
2022/07/22 01:35:46;;;;;;;;;;;24.30;56.80;;;;;;5075903;28;19970;-63
2022/07/22 01:38:14;;;;;;;;;;;24.30;56.80;;;;;;5091607;28;19920;-63
2022/07/22 01:40:41;;;;;;;;;;;24.30;56.70;;;;;;5087836;28;19920;-63
2022/07/22 01:43:07;;;;;;;;;;;24.30;56.60;;;;;;5105065;28;19924;-63
2022/07/22 01:45:34;;;;;;;;;;;24.30;56.60;;;;;;5071365;28;19968;-63
2022/07/22 01:48:01;;;;;;;;;;;24.20;56.40;;;;;;5076322;28;20028;-62
2022/07/22 01:50:28;;;;;;;;;;;24.20;56.40;;;;;;5070888;28;19951;-62
2022/07/22 01:52:54;;;;;;;;;;;24.20;56.40;;;;;;5104804;28;19920;-63
2022/07/22 01:55:23;;;;;;;;;;;24.20;56.30;;;;;;5103806;27;20007;-63
2022/07/22 01:57:49;;;;;;;;;;;24.20;56.20;;;;;;5072122;28;19928;-63
2022/07/22 02:00:16;;;;;;;;;;;24.20;56.10;;;;;;5104807;28;19962;-63
2022/07/22 02:02:45;;;;;;;;;;;24.20;56.10;;;;;;5071163;28;19955;-63
2022/07/22 02:05:12;;;;;;;;;;;24.20;56.00;;;;;;5075544;28;19921;-63
2022/07/22 02:07:39;;;;;;;;;;;24.10;55.90;;;;;;5098175;28;19921;-63
2022/07/22 02:10:06;;;;;;;;;;;24.20;55.90;;;;;;5102302;28;19928;-63
2022/07/22 02:12:34;;;;;;;;;;;24.20;55.90;;;;;;5086186;28;20006;-63
2022/07/22 02:15:01;;;;;;;;;;;24.10;55.70;;;;;;5075480;28;19920;-63
2022/07/22 02:17:28;;;;;;;;;;;24.10;55.70;;;;;;5080917;28;20014;-63
2022/07/22 02:19:57;;;;;;;;;;;24.10;55.60;;;;;;5060916;28;20019;-63
2022/07/22 02:22:24;;;;;;;;;;;24.10;55.60;;;;;;5077138;28;20519;-63
2022/07/22 02:24:51;;;;;;;;;;;24.10;55.60;;;;;;5092404;28;20027;-62
2022/07/22 02:27:17;;;;;;;;;;;24.10;55.50;;;;;;5073265;28;19989;-63
2022/07/22 02:29:46;;;;;;;;;;;24.10;55.50;;;;;;5070782;28;19920;-63
2022/07/22 02:32:12;;;;;;;;;;;24.10;55.40;;;;;;5075036;28;19927;-63
2022/07/22 02:34:39;;;;;;;;;;;24.10;55.40;;;;;;5071348;28;19920;-63
2022/07/22 02:37:06;;;;;;;;;;;24.10;55.40;;;;;;5075089;28;19923;-63
2022/07/22 02:39:32;;;;;;;;;;;24.00;55.20;;;;;;5095880;27;20015;-63
2022/07/22 02:41:59;;;;;;;;;;;24.00;55.20;;;;;;5076740;28;20265;-63
2022/07/22 02:44:31;;;;;;;;;;;24.00;55.20;;;;;;5071863;28;19950;-63
2022/07/22 02:46:59;;;;;;;;;;;24.00;55.10;;;;;;5070907;28;19979;-63
2022/07/22 02:49:25;;;;;;;;;;;24.00;55.10;;;;;;5085770;28;19920;-63
2022/07/22 02:51:52;;;;;;;;;;;24.00;55.10;;;;;;5102717;28;20023;-63
2022/07/22 02:54:19;;;;;;;;;;;24.00;55.10;;;;;;5103870;28;19932;-63
2022/07/22 02:56:46;;;;;;;;;;;24.00;55.10;;;;;;5086215;28;20005;-63
2022/07/22 02:59:12;;;;;;;;;;;24.00;55.10;;;;;;5106246;28;19928;-63
2022/07/22 03:01:39;;;;;;;;;;;24.00;55.00;;;;;;5080883;28;19974;-63
2022/07/22 03:04:07;;;;;;;;;;;24.00;55.00;;;;;;5074702;28;19920;-63
2022/07/22 03:06:37;;;;;;;;;;;24.00;54.90;;;;;;5068513;28;19920;-63
2022/07/22 03:09:04;;;;;;;;;;;24.00;54.90;;;;;;5085355;28;19925;-63
2022/07/22 03:11:31;;;;;;;;;;;24.00;54.90;;;;;;5104523;28;19920;-63
2022/07/22 03:13:57;;;;;;;;;;;24.00;54.90;;;;;;5055874;28;19920;-63
2022/07/22 03:16:24;;;;;;;;;;;24.00;54.90;;;;;;5062640;28;20490;-63
2022/07/22 03:18:51;;;;;;;;;;;23.90;54.80;;;;;;5102963;28;19920;-63
2022/07/22 03:21:19;;;;;;;;;;;24.00;54.80;;;;;;5087715;28;19924;-64
2022/07/22 03:23:46;;;;;;;;;;;24.00;54.80;;;;;;5086375;28;19927;-63
2022/07/22 03:26:13;;;;;;;;;;;23.90;54.70;;;;;;5090771;28;19981;-63
2022/07/22 03:28:40;;;;;;;;;;;24.00;54.80;;;;;;5090516;28;19923;-63
2022/07/22 03:31:08;;;;;;;;;;;24.00;54.80;;;;;;5072406;28;19927;-63
2022/07/22 03:33:35;;;;;;;;;;;23.90;54.60;;;;;;5079812;28;19927;-63
2022/07/22 03:36:01;;;;;;;;;;;23.90;54.70;;;;;;5089571;28;20296;-63
2022/07/22 03:38:29;;;;;;;;;;;23.90;54.70;;;;;;5074507;28;20017;-63
2022/07/22 03:40:56;;;;;;;;;;;23.90;54.80;;;;;;5085760;28;19974;-63
2022/07/22 03:43:23;;;;;;;;;;;23.90;54.70;;;;;;5081424;28;19969;-63
2022/07/22 03:45:49;;;;;;;;;;;23.90;54.70;;;;;;5073048;28;19974;-63
2022/07/22 03:48:16;;;;;;;;;;;23.90;54.80;;;;;;5073444;28;19924;-63
2022/07/22 03:50:43;;;;;;;;;;;23.90;54.80;;;;;;5109058;28;19920;-63
2022/07/22 03:53:10;;;;;;;;;;;23.90;54.80;;;;;;5075835;28;20385;-63
2022/07/22 03:55:39;;;;;;;;;;;23.90;54.80;;;;;;5086019;28;19920;-63
2022/07/22 03:58:06;;;;;;;;;;;23.90;54.80;;;;;;5077336;28;19920;-63
2022/07/22 04:00:33;;;;;;;;;;;23.80;54.70;;;;;;5080564;28;19942;-64
2022/07/22 04:03:02;;;;;;;;;;;23.80;54.70;;;;;;5075392;28;19974;-63
2022/07/22 04:05:29;;;;;;;;;;;23.90;55.40;;;;;;5068096;28;19986;-63
2022/07/22 04:07:56;;;;;;;;;;;23.90;54.80;;;;;;5095089;28;20375;-63
2022/07/22 04:10:23;;;;;;;;;;;23.90;54.80;;;;;;5093670;28;19920;-63
2022/07/22 04:12:51;;;;;;;;;;;23.90;54.80;;;;;;5077589;28;19958;-63
2022/07/22 04:15:18;;;;;;;;;;;23.80;54.70;;;;;;5076025;28;19924;-62
2022/07/22 04:17:46;;;;;;;;;;;23.80;54.70;;;;;;5076044;28;20313;-63
2022/07/22 04:20:14;;;;;;;;;;;23.80;54.70;;;;;;5097570;28;19924;-63
2022/07/22 04:22:40;;;;;;;;;;;23.80;54.80;;;;;;5072657;28;19970;-62
2022/07/22 04:25:07;;;;;;;;;;;23.80;54.80;;;;;;5105259;28;19989;-62
2022/07/22 04:27:34;;;;;;;;;;;23.80;54.70;;;;;;5109226;27;19920;-63
2022/07/22 04:30:02;;;;;;;;;;;23.80;54.70;;;;;;5088241;28;20324;-63
2022/07/22 04:32:29;;;;;;;;;;;23.80;54.70;;;;;;5106317;28;20011;-63
2022/07/22 04:34:56;;;;;;;;;;;23.80;54.60;;;;;;5081538;28;20385;-63
2022/07/22 04:37:24;;;;;;;;;;;23.80;54.60;;;;;;5071480;28;19928;-62
2022/07/22 04:40:01;;;;;;;;;;;23.80;54.60;;;;;;5075545;28;19923;-63
2022/07/22 04:42:28;;;;;;;;;;;23.80;54.50;;;;;;5081926;28;19924;-63
2022/07/22 04:44:55;;;;;;;;;;;23.80;54.50;;;;;;5105693;27;19921;-62
2022/07/22 04:47:23;;;;;;;;;;;23.80;54.50;;;;;;5101143;28;19929;-63
2022/07/22 04:49:50;;;;;;;;;;;23.80;54.40;;;;;;5052132;28;19935;-62
2022/07/22 04:52:16;;;;;;;;;;;23.80;54.40;;;;;;5093385;28;19921;-62
2022/07/22 04:54:43;;;;;;;;;;;23.80;54.30;;;;;;5101695;28;20373;-63
2022/07/22 04:57:10;;;;;;;;;;;23.80;54.30;;;;;;5068793;28;19946;-63
2022/07/22 04:59:37;;;;;;;;;;;23.80;54.20;;;;;;5071886;28;20029;-63
2022/07/22 05:02:03;;;;;;;;;;;23.80;54.20;;;;;;5096996;28;20273;-62
2022/07/22 05:04:32;;;;;;;;;;;23.80;54.20;;;;;;5077555;28;20305;-62
2022/07/22 05:06:58;;;;;;;;;;;23.80;54.10;;;;;;5071777;28;19929;-63
2022/07/22 05:09:25;;;;;;;;;;;23.80;54.10;;;;;;5071277;28;19920;-63
2022/07/22 05:11:53;;;;;;;;;;;23.80;54.10;;;;;;5073688;28;19958;-63
2022/07/22 05:14:20;;;;;;;;;;;23.80;54.10;;;;;;5071478;28;19928;-62
2022/07/22 05:16:47;;;;;;;;;;;23.80;54.00;;;;;;5104725;28;20005;-63
2022/07/22 05:19:13;;;;;;;;;;;23.80;54.00;;;;;;5085101;28;19920;-63
2022/07/22 05:21:41;;;;;;;;;;;23.80;54.00;;;;;;5074763;28;19940;-63
2022/07/22 05:24:08;;;;;;;;;;;23.80;53.90;;;;;;5072112;28;19924;-63
2022/07/22 05:26:35;;;;;;;;;;;23.80;53.90;;;;;;5085904;28;19920;-63
2022/07/22 05:29:02;;;;;;;;;;;23.80;53.80;;;;;;5085982;28;20010;-63
2022/07/22 05:31:28;;;;;;;;;;;23.80;53.80;;;;;;5070241;28;19924;-63
2022/07/22 05:33:55;;;;;;;;;;;23.80;53.80;;;;;;5070947;28;20007;-63
2022/07/22 05:36:22;;;;;;;;;;;23.80;53.80;;;;;;5084741;28;20456;-63
2022/07/22 05:38:51;;;;;;;;;;;23.80;53.70;;;;;;5064952;28;20316;-63
2022/07/22 05:41:17;;;;;;;;;;;23.80;53.70;;;;;;5090884;28;19965;-64
2022/07/22 05:43:44;;;;;;;;;;;23.80;53.70;;;;;;5103660;28;20130;-62
2022/07/22 05:46:11;;;;;;;;;;;23.70;53.60;;;;;;5108138;28;19999;-63
2022/07/22 05:48:38;;;;;;;;;;;23.70;53.50;;;;;;5072448;28;20015;-63
2022/07/22 05:51:07;;;;;;;;;;;23.80;53.60;;;;;;5103528;28;19920;-63
2022/07/22 05:53:34;;;;;;;;;;;23.70;53.50;;;;;;5071938;28;20011;-63
2022/07/22 05:56:02;;;;;;;;;;;23.80;53.60;;;;;;5071417;28;19991;-63
2022/07/22 05:58:29;;;;;;;;;;;23.80;53.60;;;;;;5090260;28;19925;-63
2022/07/22 06:00:55;;;;;;;;;;;23.80;53.60;;;;;;5099120;27;19936;-63
2022/07/22 06:03:22;;;;;;;;;;;23.70;53.50;;;;;;5064525;28;20270;-62
2022/07/22 06:05:49;;;;;;;;;;;23.70;53.50;;;;;;5105631;28;19925;-63
2022/07/22 06:08:16;;;;;;;;;;;23.70;53.50;;;;;;5075287;28;20299;-63
2022/07/22 06:10:42;;;;;;;;;;;23.80;53.50;;;;;;5070963;28;20034;-62
2022/07/22 06:13:11;;;;;;;;;;;23.80;53.50;;;;;;5071287;28;19974;-63
2022/07/22 06:15:37;;;;;;;;;;;23.80;53.50;;;;;;5070350;28;19973;-62
2022/07/22 06:18:04;;;;;;;;;;;23.80;53.50;;;;;;5058784;28;19927;-63
2022/07/22 06:20:31;;;;;;;;;;;23.80;53.50;;;;;;5082048;28;20373;-63
2022/07/22 06:22:57;;;;;;;;;;;23.70;53.40;;;;;;5071438;28;19921;-63
2022/07/22 06:25:24;;;;;;;;;;;23.80;53.50;;;;;;5077888;28;19967;-62
2022/07/22 06:27:53;;;;;;;;;;;23.80;53.40;;;;;;5047330;22;19971;-66
2022/07/22 06:30:21;;;;;;;;;;;23.80;53.40;;;;;;5013377;28;19932;-66
2022/07/22 06:32:48;;;;;;;;;;;23.70;53.30;;;;;;5011479;28;20363;-66
2022/07/22 06:35:15;;;;;;;;;;;23.80;53.30;;;;;;5011791;28;19921;-66
2022/07/22 06:37:45;;;;;;;;;;;23.70;53.30;;;;;;5030421;28;19971;-66
2022/07/22 06:40:12;;;;;;;;;;;23.70;53.30;;;;;;5013742;28;19925;-65
2022/07/22 06:42:41;;;;;;;;;;;23.70;53.20;;;;;;5008307;28;19922;-66
2022/07/22 06:45:08;;;;;;;;;;;23.70;53.20;;;;;;5012496;28;19928;-66
2022/07/22 06:47:39;;;;;;;;;;;23.70;53.20;;;;;;5012309;28;19922;-65
2022/07/22 06:50:06;;;;;;;;;;;23.70;53.30;;;;;;5013000;28;19921;-66
2022/07/22 06:52:33;;;;;;;;;;;23.70;53.20;;;;;;5011169;28;19928;-66
2022/07/22 06:54:59;;;;;;;;;;;23.70;53.20;;;;;;5012551;28;20421;-66
2022/07/22 06:57:26;;;;;;;;;;;23.70;53.20;;;;;;5014086;28;19977;-66
2022/07/22 06:59:53;;;;;;;;;;;23.70;53.20;;;;;;5000288;28;19929;-65
2022/07/22 07:02:19;;;;;;;;;;;23.70;53.20;;;;;;4992475;28;19926;-65
2022/07/22 07:04:47;;;;;;;;;;;23.70;53.20;;;;;;5006100;28;19958;-65
2022/07/22 07:07:15;;;;;;;;;;;23.70;53.10;;;;;;5001254;28;20009;-64
2022/07/22 07:09:44;;;;;;;;;;;23.70;53.10;;;;;;5004691;28;19921;-65
2022/07/22 07:12:11;;;;;;;;;;;23.70;53.00;;;;;;5000727;28;19922;-66
2022/07/22 07:14:38;;;;;;;;;;;23.70;53.00;;;;;;4994139;28;19980;-65
2022/07/22 07:17:05;;;;;;;;;;;23.70;52.90;;;;;;5023491;28;19989;-66
2022/07/22 07:19:32;;;;;;;;;;;23.70;53.00;;;;;;4998799;28;19930;-66
2022/07/22 07:22:00;;;;;;;;;;;23.80;52.90;;;;;;4993960;28;19921;-66
2022/07/22 07:24:27;;;;;;;;;;;23.70;52.70;;;;;;5000542;28;19922;-65
2022/07/22 07:26:53;;;;;;;;;;;23.70;52.60;;;;;;5007442;28;19992;-65
2022/07/22 07:29:22;;;;;;;;;;;23.70;52.50;;;;;;5001879;28;19926;-66
2022/07/22 07:31:48;;;;;;;;;;;23.70;52.40;;;;;;4995448;28;19926;-66
2022/07/22 07:34:15;;;;;;;;;;;23.70;52.40;;;;;;5002480;28;19922;-66
2022/07/22 07:36:42;;;;;;;;;;;23.70;52.30;;;;;;5004635;28;19945;-66
2022/07/22 07:39:10;;;;;;;;;;;23.70;52.20;;;;;;4999314;28;19940;-67
2022/07/22 07:41:37;;;;;;;;;;;23.70;52.20;;;;;;4993347;28;20367;-66
2022/07/22 07:44:03;;;;;;;;;;;23.80;52.20;;;;;;5004479;28;19944;-65
2022/07/22 07:46:30;;;;;;;;;;;23.70;52.20;;;;;;5007797;28;19921;-65
2022/07/22 07:48:57;;;;;;;;;;;23.80;52.20;;;;;;5020694;28;19972;-65
2022/07/22 07:51:23;;;;;;;;;;;23.70;52.10;;;;;;5000421;28;19921;-65
2022/07/22 07:53:51;;;;;;;;;;;23.70;52.00;;;;;;5021213;28;20375;-65
2022/07/22 07:56:19;;;;;;;;;;;23.70;52.00;;;;;;4999865;28;19932;-65
2022/07/22 07:58:46;;;;;;;;;;;23.70;52.00;;;;;;5003129;28;19921;-64
2022/07/22 08:01:15;;;;;;;;;;;23.70;52.00;;;;;;5004194;28;19941;-65
2022/07/22 08:03:44;;;;;;;;;;;23.70;52.00;;;;;;5025018;28;19925;-65
2022/07/22 08:06:11;;;;;;;;;;;23.70;52.00;;;;;;5003814;28;20049;-64
2022/07/22 08:08:37;;;;;;;;;;;23.70;52.00;;;;;;5006073;28;19933;-65
2022/07/22 08:11:04;;;;;;;;;;;23.70;51.90;;;;;;5010491;28;20279;-64
2022/07/22 08:13:32;;;;;;;;;;;23.80;52.50;;;;;;5021770;28;20132;-66
2022/07/22 08:15:59;;;;;;;;;;;23.70;51.80;;;;;;5000531;28;20394;-65
2022/07/22 08:18:26;;;;;;;;;;;23.80;51.90;;;;;;5004412;28;20224;-65
2022/07/22 08:20:53;;;;;;;;;;;23.80;51.80;;;;;;5001681;28;19948;-65
2022/07/22 08:23:19;;;;;;;;;;;23.80;52.00;;;;;;5002076;28;19968;-65
2022/07/22 08:25:46;;;;;;;;;;;23.80;51.70;;;;;;5000759;28;19984;-65
2022/07/22 08:28:13;;;;;;;;;;;23.70;51.60;;;;;;5000433;28;20392;-66
2022/07/22 08:30:41;;;;;;;;;;;23.80;51.70;;;;;;5001128;28;19945;-65
2022/07/22 08:33:08;;;;;;;;;;;23.70;51.60;;;;;;5020655;28;19926;-66
2022/07/22 08:35:35;;;;;;;;;;;23.80;51.60;;;;;;4998844;28;19926;-66
2022/07/22 08:38:02;;;;;;;;;;;23.70;51.60;;;;;;4999389;28;20299;-66
2022/07/22 08:40:29;;;;;;;;;;;23.70;51.50;;;;;;5001190;28;19933;-65
2022/07/22 08:42:56;;;;;;;;;;;23.80;51.50;;;;;;5021691;28;19926;-65
2022/07/22 08:45:22;;;;;;;;;;;23.70;51.40;;;;;;4998083;28;19926;-65
2022/07/22 08:47:51;;;;;;;;;;;23.70;51.30;;;;;;5019176;28;19979;-66
2022/07/22 08:50:18;;;;;;;;;;;23.80;51.30;;;;;;4998534;28;20268;-65
2022/07/22 08:52:44;;;;;;;;;;;23.70;50.80;;;;;;5001680;28;19928;-65
2022/07/22 08:55:11;;;;;;;;;;;23.70;50.60;;;;;;4996884;28;19941;-66
2022/07/22 08:57:38;;;;;;;;;;;23.70;50.30;;;;;;4999989;28;19926;-66
2022/07/22 09:00:09;;;;;;;;;;;23.60;49.90;;;;;;5005182;28;19926;-65
2022/07/22 09:02:36;;;;;;;;;;;23.60;49.70;;;;;;5018471;28;19926;-66
2022/07/22 09:05:05;;;;;;;;;;;23.60;49.90;;;;;;5003051;28;19929;-65
2022/07/22 09:07:34;;;;;;;;;;;23.60;49.90;;;;;;4999358;28;19953;-65
2022/07/22 09:10:00;;;;;;;;;;;23.50;50.00;;;;;;5014584;28;19926;-64
2022/07/22 09:12:29;;;;;;;;;;;23.50;50.00;;;;;;5004401;28;19972;-65
2022/07/22 09:14:57;;;;;;;;;;;23.50;50.10;;;;;;5003207;28;19933;-65
2022/07/22 09:17:25;;;;;;;;;;;23.50;50.10;;;;;;4999799;28;19926;-64
2022/07/22 09:19:51;;;;;;;;;;;23.60;50.20;;;;;;5018144;28;19957;-65
2022/07/22 09:22:32;;;;;;;;;;;23.60;50.20;;;;;;4998201;28;19926;-65
2022/07/22 09:24:59;;;;;;;;;;;23.50;50.10;;;;;;5002952;28;20010;-63
2022/07/22 09:27:26;;;;;;;;;;;23.60;50.10;;;;;;5000625;28;19988;-65
2022/07/22 09:29:56;;;;;;;;;;;23.60;50.10;;;;;;5001799;28;19926;-65
2022/07/22 09:32:23;;;;;;;;;;;23.60;50.10;;;;;;5018576;28;20401;-65
2022/07/22 09:34:49;;;;;;;;;;;23.60;50.10;;;;;;5004658;28;19926;-65
2022/07/22 09:37:16;;;;;;;;;;;23.60;50.10;;;;;;5001394;28;19972;-66
2022/07/22 09:39:44;;;;;;;;;;;23.60;50.10;;;;;;5017793;28;19980;-66
2022/07/22 09:42:11;;;;;;;;;;;23.60;50.10;;;;;;4997855;28;19926;-66
2022/07/22 09:44:37;;;;;;;;;;;23.60;50.00;;;;;;4997791;28;19979;-65
2022/07/22 09:47:04;;;;;;;;;;;23.60;49.90;;;;;;4997640;28;19938;-66
2022/07/22 09:49:32;;;;;;;;;;;23.60;49.90;;;;;;5009339;28;20263;-65
2022/07/22 09:51:58;;;;;;;;;;;23.60;49.90;;;;;;5000763;28;19972;-66
2022/07/22 09:54:25;;;;;;;;;;;23.60;49.80;;;;;;5001913;28;19926;-65
2022/07/22 09:56:53;;;;;;;;;;;23.60;49.70;;;;;;5003310;28;20417;-64
2022/07/22 09:59:20;;;;;;;;;;;23.60;49.60;;;;;;5018472;28;20299;-65
2022/07/22 10:01:47;;;;;;;;;;;23.60;49.60;;;;;;5015429;28;19929;-64
2022/07/22 10:04:14;;;;;;;;;;;23.60;49.50;;;;;;4997997;28;20319;-65
2022/07/22 10:06:40;;;;;;;;;;;23.60;49.30;;;;;;4999790;28;19932;-65
2022/07/22 10:09:07;;;;;;;;;;;23.60;49.20;;;;;;5011809;28;19925;-65
2022/07/22 10:11:34;;;;;;;;;;;23.60;49.10;;;;;;5017014;28;19985;-66
2022/07/22 10:14:02;;;;;;;;;;;23.60;49.00;;;;;;4999966;28;19933;-66
2022/07/22 10:16:29;;;;;;;;;;;23.60;48.90;;;;;;5001340;28;19926;-67
2022/07/22 10:18:55;;;;;;;;;;;23.60;48.70;;;;;;5019531;28;20011;-66
2022/07/22 10:21:23;;;;;;;;;;;23.60;48.60;;;;;;5001095;28;19929;-66
2022/07/22 10:24:09;;;;;;;;;;;23.60;48.60;;;;;;5003774;28;19933;-66
2022/07/22 10:26:52;;;;;;;;;;;23.60;48.60;;;;;;5003605;28;20298;-66
2022/07/22 10:29:27;;;;;;;;;;;23.60;48.50;;;;;;5002976;28;20004;-66
2022/07/22 10:32:08;;;;;;;;;;;23.60;48.50;;;;;;5002848;28;19948;-66
2022/07/22 10:34:35;;;;;;;;;;;23.70;48.60;;;;;;5008787;28;20343;-66
2022/07/22 10:37:02;;;;;;;;;;;23.60;48.40;;;;;;5005431;28;19972;-66
2022/07/22 10:39:29;;;;;;;;;;;23.70;48.50;;;;;;5002576;28;19964;-66
2022/07/22 10:41:56;;;;;;;;;;;23.60;48.30;;;;;;4993002;28;19930;-66
2022/07/22 10:44:39;;;;;;;;;;;23.60;48.30;;;;;;5000121;28;20515;-65
2022/07/22 10:47:07;;;;;;;;;;;23.60;48.30;;;;;;4997986;28;20382;-66
2022/07/22 10:49:34;;;;;;;;;;;23.60;48.10;;;;;;4998343;28;19925;-66
2022/07/22 10:52:11;;;;;;;;;;;23.60;48.10;;;;;;4993271;28;19929;-65
2022/07/22 10:54:57;;;;;;;;;;;23.60;48.10;;;;;;4999271;28;19980;-66
2022/07/22 10:57:30;;;;;;;;;;;23.60;48.10;;;;;;4998322;28;19961;-65
2022/07/22 10:59:57;;;;;;;;;;;23.60;48.10;;;;;;4997182;28;19925;-66
2022/07/22 11:02:25;;;;;;;;;;;23.60;48.10;;;;;;4999733;28;20325;-66
2022/07/22 11:04:54;;;;;;;;;;;23.60;48.00;;;;;;5015109;28;19948;-65
2022/07/22 11:07:21;;;;;;;;;;;23.60;48.10;;;;;;4999999;28;20418;-65
2022/07/22 11:09:48;;;;;;;;;;;23.60;48.10;;;;;;4997668;28;19940;-64
2022/07/22 11:12:15;;;;;;;;;;;23.70;48.30;;;;;;4996009;28;19933;-66
2022/07/22 11:14:45;;;;;;;;;;;23.70;48.30;;;;;;4999874;28;19976;-65
2022/07/22 11:17:13;;;;;;;;;;;23.70;48.20;;;;;;5000117;28;20393;-65
2022/07/22 11:19:41;;;;;;;;;;;23.70;48.20;;;;;;4999750;28;19933;-65
2022/07/22 11:22:08;;;;;;;;;;;23.70;48.20;;;;;;4999332;28;19925;-65
2022/07/22 11:24:35;;;;;;;;;;;23.70;48.10;;;;;;4996231;28;19926;-65
2022/07/22 11:27:02;;;;;;;;;;;23.70;47.90;;;;;;4997906;28;19925;-64
2022/07/22 11:29:29;;;;;;;;;;;23.70;47.80;;;;;;4998972;28;20016;-64
2022/07/22 11:31:57;;;;;;;;;;;23.70;48.30;;;;;;4997583;28;19925;-64
2022/07/22 11:34:23;;;;;;;;;;;23.70;47.70;;;;;;5021519;28;19929;-64
2022/07/22 11:36:52;;;;;;;;;;;23.70;47.50;;;;;;5001452;28;20260;-64
2022/07/22 11:39:19;;;;;;;;;;;23.70;47.40;;;;;;5001744;28;20162;-65
2022/07/22 11:41:46;;;;;;;;;;;23.60;47.20;;;;;;5021125;28;20380;-65
2022/07/22 11:44:12;;;;;;;;;;;23.70;47.20;;;;;;5008350;28;19973;-65
2022/07/22 11:46:39;;;;;;;;;;;23.70;47.30;;;;;;5002178;28;19969;-65
2022/07/22 11:49:06;;;;;;;;;;;23.60;47.20;;;;;;5007602;28;19973;-65
2022/07/22 11:51:33;;;;;;;;;;;23.70;47.10;;;;;;5000253;28;19926;-64
2022/07/22 11:54:01;;;;;;;;;;;23.70;47.20;;;;;;5004699;28;19979;-64
2022/07/22 11:56:28;;;;;;;;;;;23.60;47.00;;;;;;5019196;28;20016;-64
2022/07/22 11:58:55;;;;;;;;;;;23.70;47.20;;;;;;5002811;28;19934;-64
2022/07/22 12:01:22;;;;;;;;;;;23.60;47.10;;;;;;5000167;28;19975;-64
2022/07/22 12:03:49;;;;;;;;;;;23.70;47.10;;;;;;5006094;28;19969;-65
2022/07/22 12:06:16;;;;;;;;;;;23.60;47.00;;;;;;4993964;28;19953;-64
2022/07/22 12:08:43;;;;;;;;;;;23.70;47.10;;;;;;5002497;28;19926;-64
2022/07/22 12:11:12;;;;;;;;;;;23.60;47.00;;;;;;5001905;28;20278;-65
2022/07/22 12:13:41;;;;;;;;;;;23.70;47.20;;;;;;4998658;28;19929;-64
2022/07/22 12:16:18;;;;;;;;;;;23.60;47.20;;;;;;5003775;28;19932;-64
2022/07/22 12:18:45;;;;;;;;;;;23.70;47.30;;;;;;5003500;28;19961;-64
2022/07/22 12:21:12;;;;;;;;;;;23.70;47.30;;;;;;5016479;28;20020;-65
2022/07/22 12:23:38;;;;;;;;;;;23.70;47.30;;;;;;5001848;28;19968;-65
2022/07/22 12:26:06;;;;;;;;;;;23.70;47.40;;;;;;4996289;28;19929;-65
2022/07/22 12:28:34;;;;;;;;;;;23.70;47.40;;;;;;4998260;28;19926;-65
2022/07/22 12:31:00;;;;;;;;;;;23.70;47.50;;;;;;4998458;28;19929;-65
2022/07/22 12:33:27;;;;;;;;;;;23.70;47.50;;;;;;5001374;28;19938;-65
2022/07/22 12:36:01;;;;;;;;;;;23.70;47.50;;;;;;4998224;28;20326;-65
2022/07/22 12:38:28;;;;;;;;;;;23.70;47.50;;;;;;4996999;28;20013;-65
2022/07/22 12:40:55;;;;;;;;;;;23.70;47.60;;;;;;5004161;28;20036;-64
2022/07/22 12:43:24;;;;;;;;;;;23.70;47.60;;;;;;4999038;28;19992;-65
2022/07/22 12:45:53;;;;;;;;;;;23.70;47.60;;;;;;5000123;28;19921;-66
2022/07/22 12:48:19;;;;;;;;;;;23.70;47.50;;;;;;5007045;28;19968;-65
2022/07/22 12:50:55;;;;;;;;;;;23.70;47.40;;;;;;5002446;28;20398;-64
2022/07/22 12:53:22;;;;;;;;;;;23.70;47.40;;;;;;5004197;28;20270;-64
2022/07/22 12:55:51;;;;;;;;;;;23.70;47.30;;;;;;5006205;28;19979;-64
2022/07/22 12:58:18;;;;;;;;;;;23.70;47.20;;;;;;5006708;28;19961;-64
2022/07/22 13:00:45;;;;;;;;;;;23.70;47.20;;;;;;5005253;28;19926;-64
2022/07/22 13:03:13;;;;;;;;;;;23.70;47.20;;;;;;5008589;28;19940;-64
2022/07/22 13:05:41;;;;;;;;;;;23.70;47.20;;;;;;4999869;28;19965;-64
2022/07/22 13:08:07;;;;;;;;;;;23.70;47.20;;;;;;5018063;28;20020;-64
2022/07/22 13:10:34;;;;;;;;;;;23.70;47.20;;;;;;4998499;28;19972;-64
2022/07/22 13:13:01;;;;;;;;;;;23.70;47.10;;;;;;5021901;28;19944;-65
2022/07/22 13:15:28;;;;;;;;;;;23.70;47.10;;;;;;5017128;28;20270;-64
2022/07/22 13:17:55;;;;;;;;;;;23.70;47.20;;;;;;5005182;28;19922;-64
2022/07/22 13:20:24;;;;;;;;;;;23.70;47.20;;;;;;5002114;28;20449;-65
2022/07/22 13:22:51;;;;;;;;;;;23.70;47.20;;;;;;5019465;28;19922;-64
2022/07/22 13:25:17;;;;;;;;;;;23.70;47.20;;;;;;5021063;28;19926;-64
2022/07/22 13:27:44;;;;;;;;;;;23.70;47.20;;;;;;5004237;28;19926;-64
2022/07/22 13:30:11;;;;;;;;;;;23.70;47.30;;;;;;5001261;28;19926;-65
2022/07/22 13:32:38;;;;;;;;;;;23.70;47.40;;;;;;5000398;28;19979;-65
2022/07/22 13:35:08;;;;;;;;;;;23.70;47.40;;;;;;5021734;28;19984;-65
2022/07/22 13:37:37;;;;;;;;;;;23.70;47.30;;;;;;5002320;28;19925;-65
2022/07/22 13:40:04;;;;;;;;;;;23.70;47.20;;;;;;5020646;28;20322;-64
2022/07/22 13:42:30;;;;;;;;;;;23.80;47.20;;;;;;4997979;28;19926;-64
2022/07/22 13:44:57;;;;;;;;;;;23.80;47.30;;;;;;4999402;28;19934;-65
2022/07/22 13:47:26;;;;;;;;;;;23.80;47.40;;;;;;5018356;28;19936;-64
2022/07/22 13:49:53;;;;;;;;;;;23.80;47.50;;;;;;5005663;28;19925;-64
2022/07/22 13:52:20;;;;;;;;;;;23.70;47.50;;;;;;4996402;28;19937;-64
2022/07/22 13:54:49;;;;;;;;;;;23.80;47.60;;;;;;4999541;28;19979;-66
2022/07/22 13:57:16;;;;;;;;;;;23.80;47.60;;;;;;5000676;28;19926;-64
2022/07/22 13:59:43;;;;;;;;;;;23.80;47.60;;;;;;4998407;28;20041;-64
2022/07/22 14:02:09;;;;;;;;;;;23.80;47.50;;;;;;4998775;28;19933;-64
2022/07/22 14:04:36;;;;;;;;;;;23.80;47.50;;;;;;5003359;28;20382;-65
2022/07/22 14:07:03;;;;;;;;;;;23.80;47.50;;;;;;5002152;28;19929;-64
2022/07/22 14:09:30;;;;;;;;;;;23.80;47.50;;;;;;4999669;28;19933;-64
2022/07/22 14:11:59;;;;;;;;;;;23.80;47.40;;;;;;5014769;28;19921;-64
2022/07/22 14:14:26;;;;;;;;;;;23.80;47.40;;;;;;4997165;28;19969;-64
2022/07/22 14:16:53;;;;;;;;;;;23.80;47.40;;;;;;4999373;28;19999;-65